Time;durP1;ratioP1;P1;durP2;ratioP2;P2;SDS_P1;SDS_P2;PMS_P1;PMS_P2;Temp;Humidity;BMP_temperature;BMP_pressure;BME280_temperature;BME280_humidity;BME280_pressure;Samples;Min_cycle;Max_cycle;Signal;HPM_P1;HPM_P2
2023/01/21 00:01:47;;;;;;;;;;;;;;;-2.43;100.00;99382.72;5054412;28;20266;-81
2023/01/21 00:04:12;;;;;;;;;;;;;;;-2.41;100.00;99393.81;5051563;28;20372;-79
2023/01/21 00:06:38;;;;;;;;;;;;;;;-2.44;100.00;99393.13;5055496;28;19916;-79
2023/01/21 00:09:03;;;;;;;;;;;;;;;-2.45;100.00;99402.63;5053920;28;19971;-80
2023/01/21 00:11:28;;;;;;;;;;;;;;;-2.47;100.00;99401.81;5050324;28;20349;-81
2023/01/21 00:13:54;;;;;;;;;;;;;;;-2.54;100.00;99392.69;5043112;28;19920;-81
2023/01/21 00:16:19;;;;;;;;;;;;;;;-2.65;100.00;99389.72;5034995;28;19989;-82
2023/01/21 00:18:46;;;;;;;;;;;;;;;-2.69;100.00;99386.41;5050258;28;19932;-80
2023/01/21 00:21:12;;;;;;;;;;;;;;;-2.70;100.00;99382.13;5055288;28;20019;-80
2023/01/21 00:23:38;;;;;;;;;;;;;;;-2.72;100.00;99388.28;5055875;28;20007;-80
2023/01/21 00:26:04;;;;;;;;;;;;;;;-2.84;100.00;99384.47;5036329;28;19927;-81
2023/01/21 00:28:30;;;;;;;;;;;;;;;-2.82;100.00;99385.22;5054089;28;19921;-81
2023/01/21 00:30:59;;;;;;;;;;;;;;;-2.82;100.00;99394.72;5057089;28;20019;-80
2023/01/21 00:33:25;;;;;;;;;;;;;;;-2.94;100.00;99388.31;5051483;28;20015;-79
2023/01/21 00:36:01;;;;;;;;;;;;;;;-2.96;100.00;99387.56;4701419;28;9999828;-81
2023/01/21 00:38:27;;;;;;;;;;;;;;;-2.96;100.00;99393.56;5047467;28;19925;-79
2023/01/21 00:40:57;;;;;;;;;;;;;;;-2.96;100.00;99396.16;5053873;28;19917;-82
2023/01/21 00:43:23;;;;;;;;;;;;;;;-3.06;100.00;99393.97;5049574;28;19920;-80
2023/01/21 00:45:48;;;;;;;;;;;;;;;-3.06;100.00;99389.66;5025339;28;19951;-83
2023/01/21 00:48:13;;;;;;;;;;;;;;;-3.05;100.00;99380.19;5025198;28;19920;-81
2023/01/21 00:50:39;;;;;;;;;;;;;;;-3.07;100.00;99388.00;5045504;28;20004;-81
2023/01/21 00:53:04;;;;;;;;;;;;;;;-3.12;100.00;99384.75;5051413;28;19916;-81
2023/01/21 00:55:32;;;;;;;;;;;;;;;-3.10;100.00;99388.13;5042518;28;19921;-81
2023/01/21 00:57:58;;;;;;;;;;;;;;;-3.11;100.00;99386.44;5049766;28;20130;-79
2023/01/21 01:00:23;;;;;;;;;;;;;;;-3.11;100.00;99386.44;4695497;28;9999670;-79
2023/01/21 01:02:49;;;;;;;;;;;;;;;-3.08;100.00;99386.31;5061847;28;19920;-83
2023/01/21 01:05:15;;;;;;;;;;;;;;;-3.07;100.00;99388.00;5058973;28;19940;-81
2023/01/21 01:07:42;;;;;;;;;;;;;;;-3.07;100.00;99376.84;5059637;28;19951;-83
2023/01/21 01:10:08;;;;;;;;;;;;;;;-3.06;100.00;99373.31;5045683;28;19917;-82
2023/01/21 01:12:33;;;;;;;;;;;;;;;-3.03;100.00;99374.06;5052205;28;19920;-83
2023/01/21 01:14:59;;;;;;;;;;;;;;;-3.01;100.00;99377.44;5051745;28;19916;-81
2023/01/21 01:17:24;;;;;;;;;;;;;;;-3.05;100.00;99373.28;5028573;28;19917;-83
2023/01/21 01:19:51;;;;;;;;;;;;;;;-3.04;100.00;99372.38;5050820;28;19920;-82
2023/01/21 01:22:16;;;;;;;;;;;;;;;-3.11;100.00;99365.78;5032076;28;19917;-83
2023/01/21 01:24:42;;;;;;;;;;;;;;;-3.12;100.00;99366.66;5049908;28;19917;-82
2023/01/21 01:27:07;;;;;;;;;;;;;;;-3.18;100.00;99364.34;5051409;28;19939;-82
2023/01/21 01:29:32;;;;;;;;;;;;;;;-3.18;100.00;99368.69;5040735;28;20288;-82
2023/01/21 01:31:58;;;;;;;;;;;;;;;-3.15;100.00;99361.66;5048756;28;20373;-82
2023/01/21 01:34:23;;;;;;;;;;;;;;;-3.16;100.00;99352.22;5031911;28;19927;-82
2023/01/21 01:36:49;;;;;;;;;;;;;;;-3.16;100.00;99354.81;5043788;28;19924;-80
2023/01/21 01:39:14;;;;;;;;;;;;;;;-3.21;100.00;99349.00;5050638;28;19916;-82
2023/01/21 01:41:39;;;;;;;;;;;;;;;-3.19;100.00;99349.78;5048422;28;19917;-82
2023/01/21 01:44:25;;;;;;;;;;;;;;;-3.17;100.00;99345.38;5049167;28;19939;-82
2023/01/21 01:46:50;;;;;;;;;;;;;;;-3.19;100.00;99344.63;5046475;28;20334;-82
2023/01/21 01:49:18;;;;;;;;;;;;;;;-3.24;100.00;99343.97;5045423;28;19998;-82
2023/01/21 01:51:46;;;;;;;;;;;;;;;-3.26;100.00;99338.03;5050299;28;19921;-81
2023/01/21 01:54:14;;;;;;;;;;;;;;;-3.26;100.00;99339.75;5051202;28;19923;-82
2023/01/21 01:56:42;;;;;;;;;;;;;;;-3.41;100.00;99343.78;5049683;28;19925;-81
2023/01/21 01:59:07;;;;;;;;;;;;;;;-3.45;100.00;99343.06;5047802;28;19974;-81
2023/01/21 02:01:33;;;;;;;;;;;;;;;-3.45;100.00;99339.66;5052712;28;19925;-81
2023/01/21 02:04:00;;;;;;;;;;;;;;;-3.42;100.00;99332.66;5049268;28;19972;-80
2023/01/21 02:06:25;;;;;;;;;;;;;;;-3.46;100.00;99323.34;5042108;28;19963;-79
2023/01/21 02:08:51;;;;;;;;;;;;;;;-3.45;100.00;99329.34;5046814;28;19939;-79
2023/01/21 02:11:18;;;;;;;;;;;;;;;-3.48;100.00;99319.16;5051930;28;20007;-80
2023/01/21 02:13:45;;;;;;;;;;;;;;;-3.52;100.00;99322.75;5020949;28;19922;-78
2023/01/21 02:16:26;;;;;;;;;;;;;;;-3.51;100.00;99324.41;5029992;28;20276;-79
2023/01/21 02:19:08;;;;;;;;;;;;;;;-3.51;100.00;99329.56;5029420;28;19917;-79
2023/01/21 02:21:51;;;;;;;;;;;;;;;-3.52;100.00;99327.91;5070964;28;19912;-79
2023/01/21 02:24:40;;;;;;;;;;;;;;;-3.54;100.00;99329.72;5069988;28;19917;-79
2023/01/21 02:27:34;;;;;;;;;;;;;;;-3.66;100.00;99314.72;5028106;28;19949;-78
2023/01/21 02:30:00;;;;;;;;;;;;;;;-3.68;100.00;99312.19;5031618;28;19916;-79
2023/01/21 02:32:44;;;;;;;;;;;;;;;-3.64;100.00;99318.06;5048531;28;19920;-78
2023/01/21 02:35:30;;;;;;;;;;;;;;;-3.59;100.00;99321.31;5049332;28;19928;-80
2023/01/21 02:38:01;;;;;;;;;;;;;;;-3.62;100.00;99306.81;5039183;28;19952;-78
2023/01/21 02:40:27;;;;;;;;;;;;;;;-3.58;100.00;99317.81;5049373;28;19952;-79
2023/01/21 02:43:17;;;;;;;;;;;;;;;-3.55;100.00;99308.25;5050371;28;20284;-81
2023/01/21 02:45:52;;;;;;;;;;;;;;;-3.49;100.00;99296.84;5030783;28;19920;-80
2023/01/21 02:48:30;;;;;;;;;;;;;;;-3.53;100.00;99292.69;5046455;28;19920;-79
2023/01/21 02:50:55;;;;;;;;;;;;;;;-3.51;100.00;99288.31;5043181;28;19928;-79
2023/01/21 02:53:34;;;;;;;;;;;;;;;-3.53;100.00;99290.09;5048640;28;19921;-79
2023/01/21 02:56:14;;;;;;;;;;;;;;;-3.49;100.00;99286.53;5049170;28;19928;-78
2023/01/21 02:58:41;;;;;;;;;;;;;;;-3.47;100.00;99271.81;5046151;28;19921;-79
2023/01/21 03:01:15;;;;;;;;;;;;;;;-3.48;100.00;99273.56;5048174;28;19916;-79
2023/01/21 03:03:41;;;;;;;;;;;;;;;-3.50;100.00;99277.09;5047372;28;19948;-78
2023/01/21 03:06:27;;;;;;;;;;;;;;;-3.50;100.00;99284.84;5046912;28;19975;-79
2023/01/21 03:08:55;;;;;;;;;;;;;;;-3.50;100.00;99284.84;5042195;28;19921;-79
2023/01/21 03:11:21;;;;;;;;;;;;;;;-3.56;100.00;99274.75;5047862;28;19917;-79
2023/01/21 03:16:56;;;;;;;;;;;;;;;-3.55;100.00;99281.59;5042490;28;20023;-79
2023/01/21 03:19:43;;;;;;;;;;;;;;;-3.62;100.00;99275.00;5045307;28;19969;-79
2023/01/21 03:22:13;;;;;;;;;;;;;;;-3.66;100.00;99278.63;5045700;28;20074;-79
2023/01/21 03:24:41;;;;;;;;;;;;;;;-3.80;100.00;99269.69;5042957;28;19913;-78
2023/01/21 03:27:08;;;;;;;;;;;;;;;-4.02;100.00;99260.28;5048221;28;19916;-80
2023/01/21 03:29:35;;;;;;;;;;;;;;;-4.12;100.00;99254.63;5045053;28;19924;-80
2023/01/21 03:32:03;;;;;;;;;;;;;;;-4.10;100.00;99252.84;5046344;28;19923;-80
2023/01/21 03:34:31;;;;;;;;;;;;;;;-4.07;100.00;99251.91;5048267;28;19936;-81
2023/01/21 03:37:02;;;;;;;;;;;;;;;-4.00;100.00;99236.09;5045189;28;19923;-81
2023/01/21 03:39:34;;;;;;;;;;;;;;;-3.91;100.00;99248.66;5028069;28;20300;-80
2023/01/21 03:42:00;;;;;;;;;;;;;;;-3.83;100.00;99241.44;5040802;28;19924;-81
2023/01/21 03:44:25;;;;;;;;;;;;;;;-3.81;100.00;99244.81;5043928;28;19917;-81
2023/01/21 03:46:58;;;;;;;;;;;;;;;-3.80;100.00;99241.34;5045650;28;19923;-81
2023/01/21 03:49:33;;;;;;;;;;;;;;;-3.73;100.00;99253.09;5043181;28;20010;-80
2023/01/21 03:52:00;;;;;;;;;;;;;;;-3.65;100.00;99251.94;5048444;28;20007;-81
2023/01/21 03:54:25;;;;;;;;;;;;;;;-3.59;100.00;99249.13;5048693;28;20063;-79
2023/01/21 03:56:51;;;;;;;;;;;;;;;-3.58;100.00;99251.59;5047008;28;19963;-80
2023/01/21 03:59:16;;;;;;;;;;;;;;;-3.60;100.00;99248.28;5046344;28;19978;-80
2023/01/21 04:01:42;;;;;;;;;;;;;;;-3.57;100.00;99247.28;5044950;28;19924;-80
2023/01/21 04:04:08;;;;;;;;;;;;;;;-3.59;100.00;99239.59;5043437;28;19913;-80
2023/01/21 04:06:35;;;;;;;;;;;;;;;-3.61;100.00;99238.00;5048771;28;20380;-80
2023/01/21 04:09:01;;;;;;;;;;;;;;;-3.64;100.00;99240.69;5045888;28;20448;-80
2023/01/21 04:11:26;;;;;;;;;;;;;;;-3.68;100.00;99239.16;5047545;28;20273;-80
2023/01/21 04:13:52;;;;;;;;;;;;;;;-3.78;100.00;99239.53;5042800;28;19979;-80
2023/01/21 04:16:17;;;;;;;;;;;;;;;-3.92;100.00;99239.22;5046450;28;20062;-80
2023/01/21 04:18:43;;;;;;;;;;;;;;;-4.00;100.00;99243.84;5044394;28;19970;-80
2023/01/21 04:21:08;;;;;;;;;;;;;;;-3.95;100.00;99241.94;5046542;28;19917;-82
2023/01/21 04:23:34;;;;;;;;;;;;;;;-3.99;100.00;99240.38;5043203;28;19916;-81
2023/01/21 04:25:59;;;;;;;;;;;;;;;-3.96;100.00;99240.25;5048379;28;19947;-81
2023/01/21 04:28:24;;;;;;;;;;;;;;;-3.94;100.00;99243.59;5049004;28;20005;-81
2023/01/21 04:30:50;;;;;;;;;;;;;;;-3.89;100.00;99240.88;5045883;28;19923;-80
2023/01/21 04:33:15;;;;;;;;;;;;;;;-3.96;100.00;99232.53;5046329;28;20049;-80
2023/01/21 04:35:41;;;;;;;;;;;;;;;-4.01;100.00;99234.47;5050526;28;19916;-80
2023/01/21 04:38:06;;;;;;;;;;;;;;;-4.14;100.00;99230.66;5044102;28;19939;-80
2023/01/21 04:40:32;;;;;;;;;;;;;;;-4.10;100.00;99233.97;5045533;28;20015;-80
2023/01/21 04:42:57;;;;;;;;;;;;;;;-4.06;100.00;99232.97;5051140;28;19956;-80
2023/01/21 04:45:23;;;;;;;;;;;;;;;-4.10;100.00;99229.66;5043702;28;19920;-81
2023/01/21 04:47:48;;;;;;;;;;;;;;;-4.09;100.00;99233.91;5055215;28;19928;-80
2023/01/21 04:50:13;;;;;;;;;;;;;;;-4.10;100.00;99232.22;5043347;28;19924;-80
2023/01/21 04:52:39;;;;;;;;;;;;;;;-4.09;100.00;99223.59;5043213;28;19925;-80
2023/01/21 04:55:05;;;;;;;;;;;;;;;-4.15;100.00;99218.69;5053249;28;19917;-81
2023/01/21 04:57:31;;;;;;;;;;;;;;;-4.19;100.00;99219.72;5046185;28;19917;-78
2023/01/21 04:59:56;;;;;;;;;;;;;;;-4.15;100.00;99219.53;5049700;28;19978;-81
2023/01/21 05:02:21;;;;;;;;;;;;;;;-4.15;100.00;99223.84;5045639;28;19920;-80
2023/01/21 05:04:47;;;;;;;;;;;;;;;-4.12;100.00;99221.13;5051565;28;20288;-83
2023/01/21 05:07:13;;;;;;;;;;;;;;;-4.08;100.00;99220.13;5051300;28;20020;-81
2023/01/21 05:09:39;;;;;;;;;;;;;;;-4.00;100.00;99225.81;5049680;28;20399;-80
2023/01/21 05:12:05;;;;;;;;;;;;;;;-3.96;100.00;99224.81;5047378;28;19917;-82
2023/01/21 05:14:30;;;;;;;;;;;;;;;-3.92;100.00;99226.34;5052979;28;19917;-80
2023/01/21 05:16:56;;;;;;;;;;;;;;;-3.85;100.00;99222.63;5034214;28;19917;-80
2023/01/21 05:19:22;;;;;;;;;;;;;;;-3.83;100.00;99228.53;5044591;28;20377;-83
2023/01/21 05:21:47;;;;;;;;;;;;;;;-3.89;100.00;99233.97;5049080;28;19924;-80
2023/01/21 05:24:12;;;;;;;;;;;;;;;-3.87;100.00;99224.41;5049942;28;19920;-80
2023/01/21 05:26:38;;;;;;;;;;;;;;;-3.86;100.00;99220.94;5050714;28;19917;-79
2023/01/21 05:29:03;;;;;;;;;;;;;;;-4.13;100.00;99228.03;5049103;28;19932;-80
2023/01/21 05:31:29;;;;;;;;;;;;;;;-4.23;100.00;99229.28;5047849;28;19955;-81
2023/01/21 05:33:55;;;;;;;;;;;;;;;-4.48;100.00;99231.13;5052082;28;19917;-82
2023/01/21 05:36:20;;;;;;;;;;;;;;;-4.46;100.00;99233.63;5044149;28;19924;-79
2023/01/21 05:38:46;;;;;;;;;;;;;;;-4.42;100.00;99227.47;5051104;28;19924;-82
2023/01/21 05:41:11;;;;;;;;;;;;;;;-4.43;100.00;99228.38;5052745;28;20265;-83
2023/01/21 05:43:36;;;;;;;;;;;;;;;-4.38;100.00;99226.44;5032495;28;20007;-82
2023/01/21 05:46:02;;;;;;;;;;;;;;;-4.37;100.00;99226.41;5049543;28;19956;-83
2023/01/21 05:48:28;;;;;;;;;;;;;;;-4.32;100.00;99226.22;5048662;28;19917;-83
2023/01/21 05:50:54;;;;;;;;;;;;;;;-4.34;100.00;99217.72;5046825;28;19925;-81
2023/01/21 05:53:19;;;;;;;;;;;;;;;-4.31;100.00;99227.91;5050666;28;19924;-80
2023/01/21 05:55:45;;;;;;;;;;;;;;;-4.31;100.00;99238.22;5041479;28;19924;-81
2023/01/21 05:58:10;;;;;;;;;;;;;;;-4.55;100.00;99237.41;5049068;28;19942;-81
2023/01/21 06:00:36;;;;;;;;;;;;;;;-4.55;100.00;99216.78;5049972;28;19925;-81
2023/01/21 06:03:02;;;;;;;;;;;;;;;-4.63;100.00;99222.22;5048532;28;19917;-82
2023/01/21 06:05:28;;;;;;;;;;;;;;;-4.60;100.00;99213.56;5047597;28;19921;-82
2023/01/21 06:07:53;;;;;;;;;;;;;;;-4.59;100.00;99220.34;5033474;28;19927;-82
2023/01/21 06:10:19;;;;;;;;;;;;;;;-4.55;100.00;99225.38;5045173;28;19924;-81
2023/01/21 06:12:45;;;;;;;;;;;;;;;-4.49;100.00;99233.75;5050542;28;19916;-83
2023/01/21 06:15:10;;;;;;;;;;;;;;;-4.43;100.00;99238.66;5044910;28;19948;-83
2023/01/21 06:17:39;;;;;;;;;;;;;;;-4.42;100.00;99242.94;5046657;28;19913;-81
2023/01/21 06:20:05;;;;;;;;;;;;;;;-4.47;100.00;99222.47;5048550;28;20403;-82
2023/01/21 06:22:31;;;;;;;;;;;;;;;-4.44;100.00;99235.25;5052276;28;20364;-80
2023/01/21 06:24:56;;;;;;;;;;;;;;;-4.49;100.00;99254.34;5046200;28;19919;-81
2023/01/21 06:27:21;;;;;;;;;;;;;;;-4.51;100.00;99251.81;5050161;28;19931;-81
2023/01/21 06:29:47;;;;;;;;;;;;;;;-4.51;100.00;99250.97;5048664;28;19956;-81
2023/01/21 06:32:12;;;;;;;;;;;;;;;-4.60;100.00;99236.72;5048653;28;19923;-82
2023/01/21 06:34:38;;;;;;;;;;;;;;;-4.64;100.00;99233.41;5024094;28;19917;-82
2023/01/21 06:37:03;;;;;;;;;;;;;;;-4.68;100.00;99239.56;5047106;28;19959;-81
2023/01/21 06:39:29;;;;;;;;;;;;;;;-4.74;100.00;99244.94;5046325;28;19963;-81
2023/01/21 06:41:54;;;;;;;;;;;;;;;-4.71;100.00;99255.13;5051004;28;20269;-82
2023/01/21 06:44:19;;;;;;;;;;;;;;;-4.73;100.00;99251.78;5044289;28;19913;-81
2023/01/21 06:46:45;;;;;;;;;;;;;;;-4.73;100.00;99251.78;5047676;28;19917;-82
2023/01/21 06:49:10;;;;;;;;;;;;;;;-4.71;100.00;99264.59;5050496;28;19913;-82
2023/01/21 06:51:36;;;;;;;;;;;;;;;-4.76;100.00;99261.31;5050398;28;19955;-80
2023/01/21 06:54:01;;;;;;;;;;;;;;;-4.81;100.00;99266.66;5050644;28;19924;-81
2023/01/21 06:56:27;;;;;;;;;;;;;;;-4.82;100.00;99271.84;5056885;28;20016;-82
2023/01/21 06:58:52;;;;;;;;;;;;;;;-4.82;100.00;99267.53;5047790;28;19925;-81
2023/01/21 07:01:17;;;;;;;;;;;;;;;-4.86;100.00;99265.97;5050922;28;19920;-81
2023/01/21 07:03:43;;;;;;;;;;;;;;;-5.02;100.00;99277.69;5026364;28;20027;-81
2023/01/21 07:06:08;;;;;;;;;;;;;;;-5.09;100.00;99273.66;5047696;28;19959;-80
2023/01/21 07:08:34;;;;;;;;;;;;;;;-5.04;100.00;99279.47;5047587;28;19917;-79
2023/01/21 07:10:59;;;;;;;;;;;;;;;-5.03;100.00;99283.72;5044923;28;19920;-80
2023/01/21 07:13:25;;;;;;;;;;;;;;;-5.00;100.00;99281.03;5053822;28;19917;-80
2023/01/21 07:15:50;;;;;;;;;;;;;;;-5.09;100.00;99289.09;5058139;28;19926;-81
2023/01/21 07:18:16;;;;;;;;;;;;;;;-5.41;100.00;99293.56;5056318;28;19940;-80
2023/01/21 07:20:41;;;;;;;;;;;;;;;-5.44;100.00;99283.41;5054747;28;20003;-80
2023/01/21 07:23:07;;;;;;;;;;;;;;;-5.34;100.00;99294.22;5028108;28;20020;-80
2023/01/21 07:25:34;;;;;;;;;;;;;;;-5.24;100.00;99294.75;5048213;28;19923;-81
2023/01/21 07:28:00;;;;;;;;;;;;;;;-5.21;100.00;99295.50;5031144;28;19947;-82
2023/01/21 07:30:26;;;;;;;;;;;;;;;-5.14;100.00;99290.97;5023382;28;19975;-81
2023/01/21 07:32:51;;;;;;;;;;;;;;;-5.14;100.00;99296.97;5048029;28;19924;-80
2023/01/21 07:35:16;;;;;;;;;;;;;;;-5.10;100.00;99287.41;5047194;28;19989;-81
2023/01/21 07:37:42;;;;;;;;;;;;;;;-5.13;100.00;99302.97;5046455;28;19917;-80
2023/01/21 07:40:07;;;;;;;;;;;;;;;-5.17;100.00;99296.22;5049028;28;19917;-83
2023/01/21 07:42:33;;;;;;;;;;;;;;;-5.15;100.00;99297.00;5050270;28;19928;-82
2023/01/21 07:45:01;;;;;;;;;;;;;;;-5.15;100.00;99305.56;5046563;28;19924;-82
2023/01/21 07:47:28;;;;;;;;;;;;;;;-5.09;100.00;99299.38;5041335;28;19959;-80
2023/01/21 07:49:53;;;;;;;;;;;;;;;-5.06;100.00;99304.41;5042530;28;20474;-82
2023/01/21 07:52:18;;;;;;;;;;;;;;;-5.12;100.00;99307.19;5032015;28;20047;-81
2023/01/21 07:54:45;;;;;;;;;;;;;;;-5.16;100.00;99303.03;5044182;28;19948;-82
2023/01/21 07:57:11;;;;;;;;;;;;;;;-5.10;100.00;99305.41;5034439;28;20015;-82
2023/01/21 07:59:36;;;;;;;;;;;;;;;-5.04;100.00;99316.34;5038824;28;19975;-78
2023/01/21 08:02:01;;;;;;;;;;;;;;;-4.95;100.00;99316.00;5044704;28;19924;-78
2023/01/21 08:04:27;;;;;;;;;;;;;;;-4.84;100.00;99320.81;5047841;28;20343;-79
2023/01/21 08:06:55;;;;;;;;;;;;;;;-4.82;100.00;99316.44;5040985;28;19905;-79
2023/01/21 08:09:24;;;;;;;;;;;;;;;-4.78;100.00;99318.03;5054646;28;19923;-81
2023/01/21 08:11:49;;;;;;;;;;;;;;;-4.69;100.00;99325.41;5055940;28;20391;-80
2023/01/21 08:14:15;;;;;;;;;;;;;;;-4.63;100.00;99325.19;5038388;28;20016;-81
2023/01/21 08:16:40;;;;;;;;;;;;;;;-4.62;100.00;99326.88;5040583;28;19948;-80
2023/01/21 08:19:06;;;;;;;;;;;;;;;-4.76;100.00;99339.38;5049170;28;19925;-80
2023/01/21 08:21:31;;;;;;;;;;;;;;;-4.71;100.00;99327.19;5050154;28;19917;-78
2023/01/21 08:23:57;;;;;;;;;;;;;;;-4.58;100.00;99343.06;5050501;28;19963;-80
2023/01/21 08:26:22;;;;;;;;;;;;;;;-4.47;100.00;99346.09;5041763;28;19917;-80
2023/01/21 08:28:47;;;;;;;;;;;;;;;-4.37;100.00;99341.47;5039729;28;20009;-80
2023/01/21 08:31:13;;;;;;;;;;;;;;;-4.26;100.00;99349.66;5026904;28;19920;-80
2023/01/21 08:33:38;;;;;;;;;;;;;;;-4.30;100.00;99342.94;5048387;28;19923;-81
2023/01/21 08:36:05;;;;;;;;;;;;;;;-4.22;100.00;99343.47;5051967;28;19925;-80
2023/01/21 08:38:31;;;;;;;;;;;;;;;-4.16;100.00;99353.56;5040905;28;20451;-79
2023/01/21 08:40:57;;;;;;;;;;;;;;;-4.20;100.00;99336.53;5028415;28;19956;-79
2023/01/21 08:43:23;;;;;;;;;;;;;;;-4.15;100.00;99342.38;5050186;28;19964;-79
2023/01/21 08:45:48;;;;;;;;;;;;;;;-4.09;100.00;99362.75;5049512;28;19912;-77
2023/01/21 08:48:13;;;;;;;;;;;;;;;-4.05;100.00;99348.84;5042875;28;20012;-78
2023/01/21 08:50:39;;;;;;;;;;;;;;;-4.00;100.00;99357.25;5047714;28;19912;-79
2023/01/21 08:53:04;;;;;;;;;;;;;;;-3.94;100.00;99367.31;5049806;28;19916;-79
2023/01/21 08:55:30;;;;;;;;;;;;;;;-3.87;100.00;99358.47;5049728;28;19923;-79
2023/01/21 08:57:57;;;;;;;;;;;;;;;-3.79;100.00;99359.03;5031726;28;19975;-80
2023/01/21 09:00:22;;;;;;;;;;;;;;;-3.68;100.00;99357.78;5035646;28;20269;-80
2023/01/21 09:02:48;;;;;;;;;;;;;;;-3.55;100.00;99367.56;5052288;28;19924;-79
2023/01/21 09:05:14;;;;;;;;;;;;;;;-3.59;100.00;99376.28;5048898;28;19947;-79
2023/01/21 09:07:39;;;;;;;;;;;;;;;-3.50;100.00;99362.22;5050369;28;19917;-81
2023/01/21 09:10:05;;;;;;;;;;;;;;;-3.42;100.00;99365.34;5048317;28;20011;-82
2023/01/21 09:12:31;;;;;;;;;;;;;;;-3.28;100.00;99378.53;5046959;28;19971;-77
2023/01/21 09:14:56;;;;;;;;;;;;;;;-3.17;100.00;99376.34;5050223;28;19923;-77
2023/01/21 09:17:22;;;;;;;;;;;;;;;-3.04;100.00;99382.69;5046508;28;20018;-77
2023/01/21 09:19:48;;;;;;;;;;;;;;;-2.99;100.00;99380.75;5050255;28;20016;-78
2023/01/21 09:22:13;;;;;;;;;;;;;;;-2.91;100.00;99385.63;5047932;28;20404;-77
2023/01/21 09:24:39;;;;;;;;;;;;;;;-2.81;100.00;99379.16;5041089;28;19944;-79
2023/01/21 09:27:05;;;;;;;;;;;;;;;-2.67;100.00;99381.19;5048179;28;19929;-79
2023/01/21 09:29:31;;;;;;;;;;;;;;;-2.55;100.00;99406.50;5048054;28;20395;-77
2023/01/21 09:31:56;;;;;;;;;;;;;;;-2.44;100.00;99388.78;5047281;28;19920;-78
2023/01/21 09:34:22;;;;;;;;;;;;;;;-2.30;100.00;99391.63;5050824;28;20029;-80
2023/01/21 09:36:49;;;;;;;22.30;14.10;;;;;;;-2.19;100.00;99394.59;5048918;28;19919;-79
2023/01/21 09:39:14;;;;;;;19.33;13.02;;;;;;;-2.08;100.00;99392.38;5049506;28;20037;-79
2023/01/21 09:41:44;;;;;;;;;;;;;;;-1.96;100.00;99400.47;5042619;28;20100;-79
2023/01/21 09:44:29;;;;;;;;;;;;;;;-1.84;100.00;99411.13;5051971;28;19964;-78
2023/01/21 09:47:01;;;;;;;;;;;;;;;-1.73;100.00;99403.72;5056833;28;19928;-79
2023/01/21 09:49:26;;;;;;;;;;;;;;;-1.65;100.00;99398.19;5056090;28;19916;-77
2023/01/21 09:51:52;;;;;;;;;;;;;;;-1.56;100.00;99402.94;5052335;28;19917;-78
2023/01/21 09:54:19;;;;;;;;;;;;;;;-1.51;100.00;99413.91;5060701;28;19926;-76
2023/01/21 09:57:08;;;;;;;;;;;;;;;-1.43;100.00;99406.63;5060251;28;19917;-78
2023/01/21 09:59:36;;;;;;;;;;;;;;;-1.34;100.00;99408.78;5025027;28;19917;-78
2023/01/21 10:02:05;;;;;;;;;;;;;;;-1.27;100.00;99407.59;5053588;28;19959;-75
2023/01/21 10:04:36;;;;;;;;;;;;;;;-1.17;100.00;99401.97;5049883;28;20335;-76
2023/01/21 10:07:24;;;;;;;;;;;;;;;-1.12;100.00;99400.81;5048080;28;20347;-75
2023/01/21 10:09:56;;;;;;;;;;;;;;;-1.04;100.00;99408.22;5054521;28;20284;-76
2023/01/21 10:12:30;;;;;;;;;;;;;;;-0.96;100.00;99395.75;5048875;28;19917;-75
2023/01/21 10:15:18;;;;;;;;;;;;;;;-0.89;100.00;99391.97;5046787;28;20058;-74
2023/01/21 10:18:02;;;;;;;;;;;;;;;-0.81;100.00;99389.81;5052606;28;19931;-75
2023/01/21 10:20:30;;;;;;;;;;;;;;;-0.71;100.00;99391.06;5054621;28;19920;-75
2023/01/21 10:23:11;;;;;;;;;;;;;;;-0.63;100.00;99388.91;5035628;28;20329;-76
2023/01/21 10:25:37;;;;;;;;;;;;;;;-0.53;100.00;99390.09;5047479;28;19924;-74
2023/01/21 10:28:15;;;;;;;;;;;;;;;-0.43;100.00;99390.50;5030635;28;19924;-76
2023/01/21 10:30:42;;;;;;;;;;;;;;;-0.35;100.00;99392.72;5021056;28;20347;-73
2023/01/21 10:33:16;;;;;;;;;;;;;;;-0.25;100.00;99389.56;5045861;28;19916;-74
2023/01/21 10:35:55;;;;;;;;;;;;;;;-0.14;100.00;99381.22;5032599;28;20258;-76
2023/01/21 10:38:39;;;;;;;;;;;;;;;-0.06;100.00;99379.88;5038104;28;20286;-74
2023/01/21 10:41:22;;;;;;;;;;;;;;;0.06;100.00;99383.59;5049798;28;19952;-74
2023/01/21 10:43:51;;;;;;;;;;;;;;;0.16;100.00;99384.78;5050935;28;19974;-73
2023/01/21 10:46:23;;;;;;;;;;;;;;;0.28;100.00;99386.72;5045157;28;20292;-73
2023/01/21 10:48:49;;;;;;;;;;;;;;;0.35;100.00;99385.47;5046940;28;19940;-75
2023/01/21 10:51:43;;;;;;;;;;;;;;;0.47;100.00;99390.94;5054371;28;19924;-74
2023/01/21 10:54:19;;;;;;;;;;;;;;;0.56;100.00;99377.44;5034999;28;19924;-74
2023/01/21 10:57:09;;;;;;;;;;;;;;;0.64;100.00;99376.09;5053601;28;20292;-74
2023/01/21 10:59:36;;;;;;;;;;;;;;;0.76;100.00;99371.97;5051367;28;19916;-75
2023/01/21 11:02:01;;;;;;;;;;;;;;;0.85;98.96;99362.81;5054876;28;20286;-72
2023/01/21 11:04:27;;;;;;;;;;;;;;;0.94;98.01;99357.97;5053407;28;19986;-76
2023/01/21 11:07:05;;;;;;;14.00;7.80;;;;;;;1.04;97.71;99353.91;5053659;28;19924;-75
2023/01/21 11:09:36;;;;;;;9.70;7.72;;;;;;;1.15;96.37;99351.53;5054123;28;20355;-75
2023/01/21 11:12:02;;;;;;;14.68;8.15;;;;;;;1.25;96.76;99341.41;5035102;28;20067;-74
2023/01/21 11:14:27;;;;;;;;;;;;;;;1.38;96.23;99346.72;5048452;28;20191;-71
2023/01/21 11:16:53;;;;;;;;;;;;;;;1.53;94.26;99340.66;5051270;28;19948;-74
2023/01/21 11:19:26;;;;;;;;;;;;;;;1.62;93.28;99345.28;5050887;28;20031;-73
2023/01/21 11:21:56;;;;;;;;;;;;;;;1.75;92.28;99334.97;5044628;28;20038;-74
2023/01/21 11:24:23;;;;;;;;;;;;;;;1.83;92.85;99325.75;5050894;28;19939;-74
2023/01/21 11:26:50;;;;;;;;;;;;;;;1.93;91.93;99313.88;5051427;28;20019;-74
2023/01/21 11:29:16;;;;;;;;;;;;;;;1.99;91.67;99313.50;5050842;28;19923;-75
2023/01/21 11:31:47;;;;;;;;;;;;;;;2.12;90.54;99307.53;5051319;28;19916;-78
2023/01/21 11:34:14;;;;;;;;;;;;;;;2.22;89.70;99309.47;5033020;28;19917;-76
2023/01/21 11:36:58;;;;;;;;;;;;;;;2.34;89.61;99308.69;5051702;28;20316;-75
2023/01/21 11:39:25;;;;;;;;;;;;;;;2.48;89.31;99305.19;5042356;28;19928;-75
2023/01/21 11:41:54;;;;;;;;;;;;;;;2.60;88.44;99299.19;5051491;28;20273;-76
2023/01/21 11:44:20;;;;;;;;;;;;;;;2.79;86.03;99297.06;5039709;28;19924;-74
2023/01/21 11:46:46;;;;;;;;;;;;;;;2.95;84.01;99301.28;5050473;28;20070;-75
2023/01/21 11:49:17;;;;;;;;;;;;;;;3.04;82.41;99291.09;5050532;28;19956;-75
2023/01/21 11:51:44;;;;;;;;;;;;;;;3.20;80.47;99283.06;5046101;28;19916;-76
2023/01/21 11:54:13;;;;;;;;;;;;;;;3.33;79.08;99283.91;5048529;28;19923;-74
2023/01/21 11:56:42;;;;;;;;;;;;;;;3.41;79.99;99288.63;5048482;28;19917;-75
2023/01/21 11:59:32;;;;;;;;;;;;;;;3.61;76.87;99273.25;5046020;28;19923;-75
2023/01/21 12:02:19;;;;;;;;;;;;;;;3.77;75.38;99272.22;5038851;28;20105;-75
2023/01/21 12:04:47;;;;;;;;;;;;;;;3.98;73.34;99260.25;5048168;28;19940;-74
2023/01/21 12:07:17;;;;;;;;;;;;;;;4.11;72.21;99255.84;5050114;28;19917;-76
2023/01/21 12:09:47;;;;;;;;;;;;;;;4.20;70.24;99260.41;5048240;28;19923;-75
2023/01/21 12:12:19;;;;;;;;;;;;;;;4.30;68.79;99256.16;5051586;28;20161;-75
2023/01/21 12:14:57;;;;;;;;;;;;;;;4.40;68.04;99238.06;5050086;28;19963;-74
2023/01/21 12:17:31;;;;;;;;;;;;;;;4.49;68.46;99245.22;5033608;28;19927;-74
2023/01/21 12:20:00;;;;;;;;;;;;;;;4.60;67.49;99247.88;5051022;28;19916;-74
2023/01/21 12:22:40;;;;;;;;;;;;;;;4.76;66.70;99239.75;5050387;28;19916;-75
2023/01/21 12:25:19;;;;;;;;;;;;;;;4.86;65.92;99235.50;5048279;28;19939;-76
2023/01/21 12:28:05;;;;;;;;;;;;;;;4.93;66.52;99229.72;5050170;28;19917;-75
2023/01/21 12:30:30;;;;;;;5.10;4.37;;;;;;;5.10;56.16;99225.81;5043956;28;19970;-73
2023/01/21 12:32:57;;;;;;;5.78;3.80;;;;;;;5.16;57.55;99230.59;5046686;28;19920;-74
2023/01/21 12:35:37;;;;;;;5.80;4.03;;;;;;;5.36;50.72;99222.03;4435056;28;10002178;-74
2023/01/21 12:38:21;;;;;;;4.40;4.00;;;;;;;5.45;50.83;99219.66;5041327;28;20037;-74
2023/01/21 12:40:58;;;;;;;4.80;4.18;;;;;;;5.60;48.07;99213.22;5019462;28;20041;-73
2023/01/21 12:43:30;;;;;;;4.28;3.60;;;;;;;5.67;47.44;99211.81;5043684;28;20037;-74
2023/01/21 12:46:09;;;;;;;5.78;4.07;;;;;;;5.74;45.15;99203.34;5045285;28;20037;-75